sensor_id;sensor_type;location;lat;lon;timestamp;P1;durP1;ratioP1;P2;durP2;ratioP2
5121;SDS011;2563;52.242;7.956;2022-12-24T00:00:16;18.60;;;4.20;;
5121;SDS011;2563;52.242;7.956;2022-12-24T00:02:42;15.60;;;3.53;;
5121;SDS011;2563;52.242;7.956;2022-12-24T00:05:07;7.40;;;3.03;;
5121;SDS011;2563;52.242;7.956;2022-12-24T00:07:33;16.57;;;4.07;;
5121;SDS011;2563;52.242;7.956;2022-12-24T00:09:59;9.20;;;3.40;;
5121;SDS011;2563;52.242;7.956;2022-12-24T00:12:24;16.83;;;3.33;;
5121;SDS011;2563;52.242;7.956;2022-12-24T00:14:49;15.40;;;3.10;;
5121;SDS011;2563;52.242;7.956;2022-12-24T00:17:15;8.67;;;2.70;;
5121;SDS011;2563;52.242;7.956;2022-12-24T00:19:40;10.43;;;2.87;;
5121;SDS011;2563;52.242;7.956;2022-12-24T00:22:07;14.63;;;3.17;;
5121;SDS011;2563;52.242;7.956;2022-12-24T00:24:33;10.67;;;2.30;;
5121;SDS011;2563;52.242;7.956;2022-12-24T00:26:58;12.87;;;2.50;;
5121;SDS011;2563;52.242;7.956;2022-12-24T00:29:23;10.57;;;2.57;;
5121;SDS011;2563;52.242;7.956;2022-12-24T00:31:49;15.73;;;2.60;;
5121;SDS011;2563;52.242;7.956;2022-12-24T00:34:14;9.73;;;2.30;;
5121;SDS011;2563;52.242;7.956;2022-12-24T00:36:39;7.77;;;2.40;;
5121;SDS011;2563;52.242;7.956;2022-12-24T00:39:05;13.57;;;2.67;;
5121;SDS011;2563;52.242;7.956;2022-12-24T00:41:30;12.53;;;2.90;;
5121;SDS011;2563;52.242;7.956;2022-12-24T00:44:03;10.50;;;2.43;;
5121;SDS011;2563;52.242;7.956;2022-12-24T00:46:30;10.37;;;2.77;;
5121;SDS011;2563;52.242;7.956;2022-12-24T00:48:57;12.50;;;2.87;;
5121;SDS011;2563;52.242;7.956;2022-12-24T00:51:23;9.13;;;2.80;;
5121;SDS011;2563;52.242;7.956;2022-12-24T00:53:49;10.63;;;2.77;;
5121;SDS011;2563;52.242;7.956;2022-12-24T00:56:14;12.67;;;2.80;;
5121;SDS011;2563;52.242;7.956;2022-12-24T00:58:40;11.20;;;2.90;;
5121;SDS011;2563;52.242;7.956;2022-12-24T01:01:05;11.03;;;2.60;;
5121;SDS011;2563;52.242;7.956;2022-12-24T01:03:31;18.80;;;3.33;;
5121;SDS011;2563;52.242;7.956;2022-12-24T01:06:00;8.40;;;2.00;;
5121;SDS011;2563;52.242;7.956;2022-12-24T01:08:29;22.83;;;2.73;;
5121;SDS011;2563;52.242;7.956;2022-12-24T01:10:55;13.97;;;2.40;;
5121;SDS011;2563;52.242;7.956;2022-12-24T01:13:21;17.70;;;2.80;;
5121;SDS011;2563;52.242;7.956;2022-12-24T01:15:47;24.07;;;3.20;;
5121;SDS011;2563;52.242;7.956;2022-12-24T01:18:12;9.40;;;2.00;;
5121;SDS011;2563;52.242;7.956;2022-12-24T01:20:37;14.40;;;2.70;;
5121;SDS011;2563;52.242;7.956;2022-12-24T01:23:03;17.30;;;3.27;;
5121;SDS011;2563;52.242;7.956;2022-12-24T01:25:28;9.50;;;2.50;;
5121;SDS011;2563;52.242;7.956;2022-12-24T01:27:53;14.10;;;2.90;;
5121;SDS011;2563;52.242;7.956;2022-12-24T01:30:19;18.63;;;3.20;;
5121;SDS011;2563;52.242;7.956;2022-12-24T01:32:44;17.03;;;3.00;;
5121;SDS011;2563;52.242;7.956;2022-12-24T01:35:10;13.13;;;2.70;;
5121;SDS011;2563;52.242;7.956;2022-12-24T01:37:36;20.10;;;3.20;;
5121;SDS011;2563;52.242;7.956;2022-12-24T01:40:02;22.07;;;4.40;;
5121;SDS011;2563;52.242;7.956;2022-12-24T01:42:47;14.87;;;2.23;;
5121;SDS011;2563;52.242;7.956;2022-12-24T01:45:46;18.37;;;3.50;;
5121;SDS011;2563;52.242;7.956;2022-12-24T01:50:44;13.80;;;3.17;;
5121;SDS011;2563;52.242;7.956;2022-12-24T01:53:10;20.00;;;2.63;;
5121;SDS011;2563;52.242;7.956;2022-12-24T01:55:38;23.03;;;4.00;;
5121;SDS011;2563;52.242;7.956;2022-12-24T01:58:04;25.80;;;3.77;;
5121;SDS011;2563;52.242;7.956;2022-12-24T02:00:31;16.77;;;3.40;;
5121;SDS011;2563;52.242;7.956;2022-12-24T02:02:57;13.47;;;3.33;;
5121;SDS011;2563;52.242;7.956;2022-12-24T02:08:02;20.83;;;3.87;;
5121;SDS011;2563;52.242;7.956;2022-12-24T02:10:28;19.60;;;3.43;;
5121;SDS011;2563;52.242;7.956;2022-12-24T02:12:54;21.53;;;2.93;;
5121;SDS011;2563;52.242;7.956;2022-12-24T02:15:21;16.83;;;4.87;;
5121;SDS011;2563;52.242;7.956;2022-12-24T02:17:55;18.20;;;2.90;;
5121;SDS011;2563;52.242;7.956;2022-12-24T02:26:17;14.80;;;2.90;;
5121;SDS011;2563;52.242;7.956;2022-12-24T02:37:22;20.80;;;3.07;;
5121;SDS011;2563;52.242;7.956;2022-12-24T02:42:18;11.97;;;2.00;;
5121;SDS011;2563;52.242;7.956;2022-12-24T02:44:55;32.40;;;3.10;;
5121;SDS011;2563;52.242;7.956;2022-12-24T02:47:25;20.43;;;3.13;;
5121;SDS011;2563;52.242;7.956;2022-12-24T02:49:52;13.67;;;2.67;;
5121;SDS011;2563;52.242;7.956;2022-12-24T02:52:31;14.67;;;2.37;;
5121;SDS011;2563;52.242;7.956;2022-12-24T02:55:03;16.33;;;2.77;;
5121;SDS011;2563;52.242;7.956;2022-12-24T03:00:18;26.03;;;3.17;;
5121;SDS011;2563;52.242;7.956;2022-12-24T03:02:50;16.53;;;2.87;;
5121;SDS011;2563;52.242;7.956;2022-12-24T03:05:45;15.27;;;3.50;;
5121;SDS011;2563;52.242;7.956;2022-12-24T03:10:52;16.10;;;2.90;;
5121;SDS011;2563;52.242;7.956;2022-12-24T03:13:21;23.20;;;3.30;;
5121;SDS011;2563;52.242;7.956;2022-12-24T03:15:48;19.13;;;3.10;;
5121;SDS011;2563;52.242;7.956;2022-12-24T03:18:19;16.17;;;2.70;;
5121;SDS011;2563;52.242;7.956;2022-12-24T03:21:01;18.03;;;2.70;;
5121;SDS011;2563;52.242;7.956;2022-12-24T03:23:31;20.57;;;3.10;;
5121;SDS011;2563;52.242;7.956;2022-12-24T03:25:58;28.33;;;4.00;;
5121;SDS011;2563;52.242;7.956;2022-12-24T03:28:26;18.73;;;2.43;;
5121;SDS011;2563;52.242;7.956;2022-12-24T03:30:52;17.17;;;3.33;;
5121;SDS011;2563;52.242;7.956;2022-12-24T03:33:18;14.70;;;3.23;;
5121;SDS011;2563;52.242;7.956;2022-12-24T03:35:44;26.10;;;4.10;;
5121;SDS011;2563;52.242;7.956;2022-12-24T03:38:10;20.87;;;3.60;;
5121;SDS011;2563;52.242;7.956;2022-12-24T03:40:35;12.57;;;2.47;;
5121;SDS011;2563;52.242;7.956;2022-12-24T03:43:01;21.97;;;3.63;;
5121;SDS011;2563;52.242;7.956;2022-12-24T03:45:26;21.67;;;4.13;;
5121;SDS011;2563;52.242;7.956;2022-12-24T03:47:51;16.30;;;3.30;;
5121;SDS011;2563;52.242;7.956;2022-12-24T03:50:17;27.27;;;3.80;;
5121;SDS011;2563;52.242;7.956;2022-12-24T03:52:43;22.60;;;4.40;;
5121;SDS011;2563;52.242;7.956;2022-12-24T03:55:08;18.33;;;4.17;;
5121;SDS011;2563;52.242;7.956;2022-12-24T03:57:33;26.33;;;3.87;;
5121;SDS011;2563;52.242;7.956;2022-12-24T03:59:59;22.50;;;3.47;;
5121;SDS011;2563;52.242;7.956;2022-12-24T04:02:24;27.63;;;3.93;;
5121;SDS011;2563;52.242;7.956;2022-12-24T04:04:50;17.53;;;4.20;;
5121;SDS011;2563;52.242;7.956;2022-12-24T04:07:15;19.23;;;4.17;;
5121;SDS011;2563;52.242;7.956;2022-12-24T04:09:40;24.67;;;3.10;;
5121;SDS011;2563;52.242;7.956;2022-12-24T04:12:06;24.27;;;5.00;;
5121;SDS011;2563;52.242;7.956;2022-12-24T04:14:32;21.27;;;3.97;;
5121;SDS011;2563;52.242;7.956;2022-12-24T04:16:57;25.03;;;4.30;;
5121;SDS011;2563;52.242;7.956;2022-12-24T04:19:23;26.07;;;3.33;;
5121;SDS011;2563;52.242;7.956;2022-12-24T04:21:48;18.33;;;3.37;;
5121;SDS011;2563;52.242;7.956;2022-12-24T04:24:14;27.10;;;3.60;;
5121;SDS011;2563;52.242;7.956;2022-12-24T04:26:39;13.93;;;3.70;;
5121;SDS011;2563;52.242;7.956;2022-12-24T04:29:04;11.70;;;3.07;;
5121;SDS011;2563;52.242;7.956;2022-12-24T04:31:30;19.37;;;3.50;;
5121;SDS011;2563;52.242;7.956;2022-12-24T04:33:55;21.30;;;4.90;;
5121;SDS011;2563;52.242;7.956;2022-12-24T04:36:20;32.03;;;4.43;;
5121;SDS011;2563;52.242;7.956;2022-12-24T04:38:46;17.17;;;3.07;;
5121;SDS011;2563;52.242;7.956;2022-12-24T04:41:22;17.57;;;3.80;;
5121;SDS011;2563;52.242;7.956;2022-12-24T04:43:48;23.97;;;4.40;;
5121;SDS011;2563;52.242;7.956;2022-12-24T04:46:15;29.77;;;3.10;;
5121;SDS011;2563;52.242;7.956;2022-12-24T04:48:43;22.47;;;3.60;;
5121;SDS011;2563;52.242;7.956;2022-12-24T04:51:10;17.23;;;3.47;;
5121;SDS011;2563;52.242;7.956;2022-12-24T04:53:36;16.93;;;3.13;;
5121;SDS011;2563;52.242;7.956;2022-12-24T04:56:03;20.77;;;3.43;;
5121;SDS011;2563;52.242;7.956;2022-12-24T04:58:33;27.47;;;3.77;;
5121;SDS011;2563;52.242;7.956;2022-12-24T05:01:02;20.03;;;3.23;;
5121;SDS011;2563;52.242;7.956;2022-12-24T05:03:28;20.83;;;3.20;;
5121;SDS011;2563;52.242;7.956;2022-12-24T05:05:59;18.87;;;3.13;;
5121;SDS011;2563;52.242;7.956;2022-12-24T05:08:28;21.73;;;3.33;;
5121;SDS011;2563;52.242;7.956;2022-12-24T05:10:56;15.43;;;3.90;;
5121;SDS011;2563;52.242;7.956;2022-12-24T05:13:22;14.63;;;2.67;;
5121;SDS011;2563;52.242;7.956;2022-12-24T05:15:47;23.57;;;3.60;;
5121;SDS011;2563;52.242;7.956;2022-12-24T05:18:13;19.20;;;3.17;;
5121;SDS011;2563;52.242;7.956;2022-12-24T05:20:39;22.90;;;4.37;;
5121;SDS011;2563;52.242;7.956;2022-12-24T05:23:05;25.17;;;3.73;;
5121;SDS011;2563;52.242;7.956;2022-12-24T05:26:03;24.10;;;4.17;;
5121;SDS011;2563;52.242;7.956;2022-12-24T05:28:46;21.80;;;3.40;;
5121;SDS011;2563;52.242;7.956;2022-12-24T05:31:22;18.90;;;3.47;;
5121;SDS011;2563;52.242;7.956;2022-12-24T05:33:49;16.03;;;3.77;;
5121;SDS011;2563;52.242;7.956;2022-12-24T05:36:14;25.57;;;3.63;;
5121;SDS011;2563;52.242;7.956;2022-12-24T05:38:40;25.97;;;4.40;;
5121;SDS011;2563;52.242;7.956;2022-12-24T05:41:05;23.37;;;3.13;;
5121;SDS011;2563;52.242;7.956;2022-12-24T05:43:33;25.70;;;2.90;;
5121;SDS011;2563;52.242;7.956;2022-12-24T05:45:59;16.73;;;3.70;;
5121;SDS011;2563;52.242;7.956;2022-12-24T05:48:26;18.20;;;3.43;;
5121;SDS011;2563;52.242;7.956;2022-12-24T05:50:51;14.93;;;3.60;;
5121;SDS011;2563;52.242;7.956;2022-12-24T05:53:17;22.60;;;3.40;;
5121;SDS011;2563;52.242;7.956;2022-12-24T05:55:43;28.00;;;4.33;;
5121;SDS011;2563;52.242;7.956;2022-12-24T05:58:08;19.53;;;3.23;;
5121;SDS011;2563;52.242;7.956;2022-12-24T06:00:33;22.03;;;3.30;;
5121;SDS011;2563;52.242;7.956;2022-12-24T06:02:59;16.90;;;3.70;;
5121;SDS011;2563;52.242;7.956;2022-12-24T06:05:24;27.53;;;4.20;;
5121;SDS011;2563;52.242;7.956;2022-12-24T06:07:49;20.80;;;3.97;;
5121;SDS011;2563;52.242;7.956;2022-12-24T06:10:15;19.07;;;3.47;;
5121;SDS011;2563;52.242;7.956;2022-12-24T06:12:40;19.00;;;4.17;;
5121;SDS011;2563;52.242;7.956;2022-12-24T06:15:06;24.43;;;4.67;;
5121;SDS011;2563;52.242;7.956;2022-12-24T06:17:31;17.87;;;4.20;;
5121;SDS011;2563;52.242;7.956;2022-12-24T06:19:57;20.03;;;3.90;;
5121;SDS011;2563;52.242;7.956;2022-12-24T06:22:23;34.57;;;4.60;;
5121;SDS011;2563;52.242;7.956;2022-12-24T06:24:48;23.20;;;4.07;;
5121;SDS011;2563;52.242;7.956;2022-12-24T06:27:13;22.23;;;3.93;;
5121;SDS011;2563;52.242;7.956;2022-12-24T06:29:39;24.10;;;4.13;;
5121;SDS011;2563;52.242;7.956;2022-12-24T06:32:04;23.60;;;4.00;;
5121;SDS011;2563;52.242;7.956;2022-12-24T06:34:29;18.30;;;5.07;;
5121;SDS011;2563;52.242;7.956;2022-12-24T06:36:55;19.33;;;4.00;;
5121;SDS011;2563;52.242;7.956;2022-12-24T06:39:20;16.30;;;3.37;;
5121;SDS011;2563;52.242;7.956;2022-12-24T06:41:45;15.33;;;3.27;;
5121;SDS011;2563;52.242;7.956;2022-12-24T06:44:11;23.33;;;4.23;;
5121;SDS011;2563;52.242;7.956;2022-12-24T06:46:36;18.93;;;3.90;;
5121;SDS011;2563;52.242;7.956;2022-12-24T06:49:01;17.50;;;4.10;;
5121;SDS011;2563;52.242;7.956;2022-12-24T06:51:27;22.07;;;5.10;;
5121;SDS011;2563;52.242;7.956;2022-12-24T06:53:52;30.03;;;5.03;;
5121;SDS011;2563;52.242;7.956;2022-12-24T06:56:18;26.57;;;4.50;;
5121;SDS011;2563;52.242;7.956;2022-12-24T06:58:44;18.73;;;3.50;;
5121;SDS011;2563;52.242;7.956;2022-12-24T07:01:11;27.87;;;4.43;;
5121;SDS011;2563;52.242;7.956;2022-12-24T07:03:38;20.47;;;4.80;;
5121;SDS011;2563;52.242;7.956;2022-12-24T07:06:04;20.50;;;4.37;;
5121;SDS011;2563;52.242;7.956;2022-12-24T07:08:30;21.13;;;4.23;;
5121;SDS011;2563;52.242;7.956;2022-12-24T07:11:00;18.03;;;4.27;;
5121;SDS011;2563;52.242;7.956;2022-12-24T07:13:25;27.60;;;5.33;;
5121;SDS011;2563;52.242;7.956;2022-12-24T07:16:00;18.40;;;6.00;;
5121;SDS011;2563;52.242;7.956;2022-12-24T07:18:29;30.87;;;5.77;;
5121;SDS011;2563;52.242;7.956;2022-12-24T07:20:55;24.20;;;4.27;;
5121;SDS011;2563;52.242;7.956;2022-12-24T07:23:21;25.23;;;5.23;;
5121;SDS011;2563;52.242;7.956;2022-12-24T07:25:47;28.27;;;5.03;;
5121;SDS011;2563;52.242;7.956;2022-12-24T07:28:12;23.00;;;4.47;;
5121;SDS011;2563;52.242;7.956;2022-12-24T07:30:37;25.63;;;5.03;;
5121;SDS011;2563;52.242;7.956;2022-12-24T07:33:03;20.90;;;5.13;;
5121;SDS011;2563;52.242;7.956;2022-12-24T07:35:28;24.83;;;6.93;;
5121;SDS011;2563;52.242;7.956;2022-12-24T07:37:54;20.53;;;5.23;;
5121;SDS011;2563;52.242;7.956;2022-12-24T07:40:19;19.10;;;5.03;;
5121;SDS011;2563;52.242;7.956;2022-12-24T07:42:45;18.57;;;5.30;;
5121;SDS011;2563;52.242;7.956;2022-12-24T07:45:10;28.03;;;5.80;;
5121;SDS011;2563;52.242;7.956;2022-12-24T07:47:35;23.00;;;6.30;;
5121;SDS011;2563;52.242;7.956;2022-12-24T07:50:02;18.40;;;5.73;;
5121;SDS011;2563;52.242;7.956;2022-12-24T07:52:28;26.47;;;5.20;;
5121;SDS011;2563;52.242;7.956;2022-12-24T07:54:53;29.30;;;7.70;;
5121;SDS011;2563;52.242;7.956;2022-12-24T07:57:19;20.30;;;5.37;;
5121;SDS011;2563;52.242;7.956;2022-12-24T07:59:44;30.17;;;7.50;;
5121;SDS011;2563;52.242;7.956;2022-12-24T08:02:10;26.30;;;6.60;;
5121;SDS011;2563;52.242;7.956;2022-12-24T08:04:35;28.10;;;8.17;;
5121;SDS011;2563;52.242;7.956;2022-12-24T08:07:04;25.37;;;7.00;;
5121;SDS011;2563;52.242;7.956;2022-12-24T08:09:34;24.80;;;5.63;;
5121;SDS011;2563;52.242;7.956;2022-12-24T08:12:00;34.10;;;7.00;;
5121;SDS011;2563;52.242;7.956;2022-12-24T08:14:29;22.17;;;6.17;;
5121;SDS011;2563;52.242;7.956;2022-12-24T08:16:55;20.63;;;5.37;;
5121;SDS011;2563;52.242;7.956;2022-12-24T08:19:21;22.43;;;6.10;;
5121;SDS011;2563;52.242;7.956;2022-12-24T08:21:46;24.23;;;6.97;;
5121;SDS011;2563;52.242;7.956;2022-12-24T08:24:11;23.07;;;6.50;;
5121;SDS011;2563;52.242;7.956;2022-12-24T08:26:37;30.20;;;6.73;;
5121;SDS011;2563;52.242;7.956;2022-12-24T08:29:03;14.50;;;5.40;;
5121;SDS011;2563;52.242;7.956;2022-12-24T08:31:29;23.23;;;6.33;;
5121;SDS011;2563;52.242;7.956;2022-12-24T08:33:54;26.60;;;7.90;;
5121;SDS011;2563;52.242;7.956;2022-12-24T08:36:20;20.93;;;5.63;;
5121;SDS011;2563;52.242;7.956;2022-12-24T08:38:45;17.67;;;5.60;;
5121;SDS011;2563;52.242;7.956;2022-12-24T08:41:11;22.03;;;5.20;;
5121;SDS011;2563;52.242;7.956;2022-12-24T08:43:39;28.53;;;5.47;;
5121;SDS011;2563;52.242;7.956;2022-12-24T08:46:04;24.63;;;5.63;;
5121;SDS011;2563;52.242;7.956;2022-12-24T08:48:31;31.73;;;8.80;;
5121;SDS011;2563;52.242;7.956;2022-12-24T08:50:57;26.27;;;5.33;;
5121;SDS011;2563;52.242;7.956;2022-12-24T08:53:23;15.60;;;4.87;;
5121;SDS011;2563;52.242;7.956;2022-12-24T08:55:48;16.53;;;5.07;;
5121;SDS011;2563;52.242;7.956;2022-12-24T08:58:14;23.30;;;5.53;;
5121;SDS011;2563;52.242;7.956;2022-12-24T09:00:39;13.67;;;4.90;;
5121;SDS011;2563;52.242;7.956;2022-12-24T09:03:05;22.97;;;5.40;;
5121;SDS011;2563;52.242;7.956;2022-12-24T09:05:30;20.90;;;5.30;;
5121;SDS011;2563;52.242;7.956;2022-12-24T09:07:56;27.40;;;5.80;;
5121;SDS011;2563;52.242;7.956;2022-12-24T09:10:21;26.53;;;5.00;;
5121;SDS011;2563;52.242;7.956;2022-12-24T09:12:47;21.43;;;5.60;;
5121;SDS011;2563;52.242;7.956;2022-12-24T09:15:12;15.63;;;5.50;;
5121;SDS011;2563;52.242;7.956;2022-12-24T09:17:38;20.53;;;5.53;;
5121;SDS011;2563;52.242;7.956;2022-12-24T09:20:04;14.80;;;4.90;;
5121;SDS011;2563;52.242;7.956;2022-12-24T09:22:31;26.30;;;5.90;;
5121;SDS011;2563;52.242;7.956;2022-12-24T09:24:59;22.33;;;5.50;;
5121;SDS011;2563;52.242;7.956;2022-12-24T09:27:24;12.10;;;4.50;;
5121;SDS011;2563;52.242;7.956;2022-12-24T09:29:50;15.60;;;4.57;;
5121;SDS011;2563;52.242;7.956;2022-12-24T09:32:15;18.90;;;4.93;;
5121;SDS011;2563;52.242;7.956;2022-12-24T09:34:41;12.37;;;5.10;;
5121;SDS011;2563;52.242;7.956;2022-12-24T09:37:06;25.10;;;6.13;;
5121;SDS011;2563;52.242;7.956;2022-12-24T09:39:32;13.83;;;4.00;;
5121;SDS011;2563;52.242;7.956;2022-12-24T09:50:17;10.17;;;3.30;;
5121;SDS011;2563;52.242;7.956;2022-12-24T09:52:52;15.10;;;4.27;;
5121;SDS011;2563;52.242;7.956;2022-12-24T09:55:22;20.47;;;4.90;;
5121;SDS011;2563;52.242;7.956;2022-12-24T09:57:52;18.00;;;5.10;;
5121;SDS011;2563;52.242;7.956;2022-12-24T10:00:21;20.93;;;6.03;;
5121;SDS011;2563;52.242;7.956;2022-12-24T10:02:49;21.37;;;5.90;;
5121;SDS011;2563;52.242;7.956;2022-12-24T10:05:16;22.87;;;4.77;;
5121;SDS011;2563;52.242;7.956;2022-12-24T10:10:37;26.40;;;7.23;;
5121;SDS011;2563;52.242;7.956;2022-12-24T10:18:56;14.83;;;5.10;;
5121;SDS011;2563;52.242;7.956;2022-12-24T10:24:18;18.97;;;4.87;;
5121;SDS011;2563;52.242;7.956;2022-12-24T10:26:56;29.17;;;5.50;;
5121;SDS011;2563;52.242;7.956;2022-12-24T10:29:27;27.17;;;7.60;;
5121;SDS011;2563;52.242;7.956;2022-12-24T10:34:43;21.53;;;4.93;;
5121;SDS011;2563;52.242;7.956;2022-12-24T10:37:19;20.93;;;4.50;;
5121;SDS011;2563;52.242;7.956;2022-12-24T10:39:48;21.03;;;5.83;;
5121;SDS011;2563;52.242;7.956;2022-12-24T10:42:14;22.87;;;5.67;;
5121;SDS011;2563;52.242;7.956;2022-12-24T10:44:41;20.17;;;5.67;;
5121;SDS011;2563;52.242;7.956;2022-12-24T10:47:11;22.03;;;4.63;;
5121;SDS011;2563;52.242;7.956;2022-12-24T10:52:21;20.07;;;4.97;;
5121;SDS011;2563;52.242;7.956;2022-12-24T10:57:32;22.03;;;5.07;;
5121;SDS011;2563;52.242;7.956;2022-12-24T10:59:59;22.67;;;5.37;;
5121;SDS011;2563;52.242;7.956;2022-12-24T11:02:29;20.80;;;5.47;;
5121;SDS011;2563;52.242;7.956;2022-12-24T11:04:55;19.30;;;4.60;;
5121;SDS011;2563;52.242;7.956;2022-12-24T11:07:23;9.30;;;3.83;;
5121;SDS011;2563;52.242;7.956;2022-12-24T11:10:05;23.53;;;4.90;;
5121;SDS011;2563;52.242;7.956;2022-12-24T11:12:39;18.57;;;4.73;;
5121;SDS011;2563;52.242;7.956;2022-12-24T11:15:18;19.53;;;4.87;;
5121;SDS011;2563;52.242;7.956;2022-12-24T11:18:00;29.70;;;4.57;;
5121;SDS011;2563;52.242;7.956;2022-12-24T11:20:30;24.87;;;4.43;;
5121;SDS011;2563;52.242;7.956;2022-12-24T11:22:57;20.27;;;4.80;;
5121;SDS011;2563;52.242;7.956;2022-12-24T11:27:56;17.93;;;3.87;;
5121;SDS011;2563;52.242;7.956;2022-12-24T11:30:34;27.97;;;4.93;;
5121;SDS011;2563;52.242;7.956;2022-12-24T11:35:26;16.17;;;4.97;;
5121;SDS011;2563;52.242;7.956;2022-12-24T11:40:24;29.63;;;4.50;;
5121;SDS011;2563;52.242;7.956;2022-12-24T11:42:52;19.77;;;4.40;;
5121;SDS011;2563;52.242;7.956;2022-12-24T11:45:28;26.60;;;5.80;;
5121;SDS011;2563;52.242;7.956;2022-12-24T11:47:55;20.17;;;5.63;;
5121;SDS011;2563;52.242;7.956;2022-12-24T12:04:02;14.73;;;4.50;;
5121;SDS011;2563;52.242;7.956;2022-12-24T12:06:32;17.20;;;5.03;;
5121;SDS011;2563;52.242;7.956;2022-12-24T12:09:06;20.30;;;5.10;;
5121;SDS011;2563;52.242;7.956;2022-12-24T12:11:37;17.37;;;4.17;;
5121;SDS011;2563;52.242;7.956;2022-12-24T12:14:07;29.60;;;4.47;;
5121;SDS011;2563;52.242;7.956;2022-12-24T12:16:46;25.30;;;5.60;;
5121;SDS011;2563;52.242;7.956;2022-12-24T12:22:22;17.07;;;4.87;;
5121;SDS011;2563;52.242;7.956;2022-12-24T12:24:52;18.33;;;4.20;;
5121;SDS011;2563;52.242;7.956;2022-12-24T12:30:05;20.30;;;5.07;;
5121;SDS011;2563;52.242;7.956;2022-12-24T12:32:40;20.90;;;4.33;;
5121;SDS011;2563;52.242;7.956;2022-12-24T12:35:27;18.83;;;5.27;;
5121;SDS011;2563;52.242;7.956;2022-12-24T12:38:04;25.90;;;4.57;;
5121;SDS011;2563;52.242;7.956;2022-12-24T12:40:39;24.73;;;4.67;;
5121;SDS011;2563;52.242;7.956;2022-12-24T12:45:52;17.90;;;4.40;;
5121;SDS011;2563;52.242;7.956;2022-12-24T12:51:31;17.63;;;4.70;;
5121;SDS011;2563;52.242;7.956;2022-12-24T12:57:12;18.53;;;3.93;;
5121;SDS011;2563;52.242;7.956;2022-12-24T12:59:50;14.90;;;3.77;;
5121;SDS011;2563;52.242;7.956;2022-12-24T13:08:13;14.70;;;3.97;;
5121;SDS011;2563;52.242;7.956;2022-12-24T13:16:23;12.10;;;3.70;;
5121;SDS011;2563;52.242;7.956;2022-12-24T13:21:49;16.87;;;4.23;;
5121;SDS011;2563;52.242;7.956;2022-12-24T13:24:19;25.33;;;4.30;;
5121;SDS011;2563;52.242;7.956;2022-12-24T13:34:55;15.37;;;3.87;;
5121;SDS011;2563;52.242;7.956;2022-12-24T13:53:40;18.43;;;4.60;;
5121;SDS011;2563;52.242;7.956;2022-12-24T13:58:38;18.90;;;4.57;;
5121;SDS011;2563;52.242;7.956;2022-12-24T14:01:10;20.67;;;4.27;;
5121;SDS011;2563;52.242;7.956;2022-12-24T14:03:52;17.43;;;4.33;;
5121;SDS011;2563;52.242;7.956;2022-12-24T14:06:22;22.60;;;5.90;;
5121;SDS011;2563;52.242;7.956;2022-12-24T14:08:51;16.17;;;3.93;;
5121;SDS011;2563;52.242;7.956;2022-12-24T14:11:20;20.10;;;4.57;;
5121;SDS011;2563;52.242;7.956;2022-12-24T14:21:34;19.03;;;4.03;;
5121;SDS011;2563;52.242;7.956;2022-12-24T14:24:02;20.97;;;4.50;;
5121;SDS011;2563;52.242;7.956;2022-12-24T14:26:33;21.90;;;5.47;;
5121;SDS011;2563;52.242;7.956;2022-12-24T14:29:51;24.27;;;5.13;;
5121;SDS011;2563;52.242;7.956;2022-12-24T14:31:58;20.43;;;3.97;;
5121;SDS011;2563;52.242;7.956;2022-12-24T14:34:28;16.43;;;3.60;;
5121;SDS011;2563;52.242;7.956;2022-12-24T14:36:54;12.83;;;3.33;;
5121;SDS011;2563;52.242;7.956;2022-12-24T14:42:03;16.07;;;4.77;;
5121;SDS011;2563;52.242;7.956;2022-12-24T14:47:36;15.00;;;4.03;;
5121;SDS011;2563;52.242;7.956;2022-12-24T15:00:46;48.40;;;15.30;;
5121;SDS011;2563;52.242;7.956;2022-12-24T15:03:13;47.60;;;14.70;;
5121;SDS011;2563;52.242;7.956;2022-12-24T15:05:43;24.07;;;7.27;;
5121;SDS011;2563;52.242;7.956;2022-12-24T15:08:17;28.53;;;6.47;;
5121;SDS011;2563;52.242;7.956;2022-12-24T15:10:49;21.83;;;6.80;;
5121;SDS011;2563;52.242;7.956;2022-12-24T15:16:05;17.80;;;5.07;;
5121;SDS011;2563;52.242;7.956;2022-12-24T15:18:34;24.53;;;7.27;;
5121;SDS011;2563;52.242;7.956;2022-12-24T15:21:04;30.17;;;6.23;;
5121;SDS011;2563;52.242;7.956;2022-12-24T15:23:33;51.27;;;17.20;;
5121;SDS011;2563;52.242;7.956;2022-12-24T15:28:38;32.97;;;9.17;;
5121;SDS011;2563;52.242;7.956;2022-12-24T15:31:07;44.57;;;12.60;;
5121;SDS011;2563;52.242;7.956;2022-12-24T15:33:36;22.93;;;7.93;;
5121;SDS011;2563;52.242;7.956;2022-12-24T15:36:03;21.70;;;6.07;;
5121;SDS011;2563;52.242;7.956;2022-12-24T15:38:34;16.10;;;3.30;;
5121;SDS011;2563;52.242;7.956;2022-12-24T15:41:04;20.93;;;4.43;;
5121;SDS011;2563;52.242;7.956;2022-12-24T15:43:32;12.80;;;3.03;;
5121;SDS011;2563;52.242;7.956;2022-12-24T15:46:04;23.73;;;6.73;;
5121;SDS011;2563;52.242;7.956;2022-12-24T15:48:29;20.93;;;4.67;;
5121;SDS011;2563;52.242;7.956;2022-12-24T15:50:57;16.27;;;3.73;;
5121;SDS011;2563;52.242;7.956;2022-12-24T15:53:47;24.13;;;4.00;;
5121;SDS011;2563;52.242;7.956;2022-12-24T15:56:26;15.47;;;3.33;;
5121;SDS011;2563;52.242;7.956;2022-12-24T15:59:10;17.70;;;3.43;;
5121;SDS011;2563;52.242;7.956;2022-12-24T16:01:35;12.10;;;3.10;;
5121;SDS011;2563;52.242;7.956;2022-12-24T16:04:09;12.90;;;2.90;;
5121;SDS011;2563;52.242;7.956;2022-12-24T16:09:48;27.73;;;3.80;;
5121;SDS011;2563;52.242;7.956;2022-12-24T16:12:15;18.87;;;4.93;;
5121;SDS011;2563;52.242;7.956;2022-12-24T16:14:43;18.77;;;3.20;;
5121;SDS011;2563;52.242;7.956;2022-12-24T16:17:29;11.30;;;3.23;;
5121;SDS011;2563;52.242;7.956;2022-12-24T16:19:59;13.00;;;3.07;;
5121;SDS011;2563;52.242;7.956;2022-12-24T16:22:29;21.73;;;4.03;;
5121;SDS011;2563;52.242;7.956;2022-12-24T16:25:01;14.07;;;3.30;;
5121;SDS011;2563;52.242;7.956;2022-12-24T16:27:46;15.87;;;2.83;;
5121;SDS011;2563;52.242;7.956;2022-12-24T16:30:13;16.97;;;3.13;;
5121;SDS011;2563;52.242;7.956;2022-12-24T16:32:38;22.43;;;3.43;;
5121;SDS011;2563;52.242;7.956;2022-12-24T16:35:06;21.60;;;3.93;;
5121;SDS011;2563;52.242;7.956;2022-12-24T16:37:44;19.13;;;3.50;;
5121;SDS011;2563;52.242;7.956;2022-12-24T16:40:13;14.27;;;3.50;;
5121;SDS011;2563;52.242;7.956;2022-12-24T16:42:39;18.43;;;4.17;;
5121;SDS011;2563;52.242;7.956;2022-12-24T16:45:23;14.60;;;3.57;;
5121;SDS011;2563;52.242;7.956;2022-12-24T16:47:49;14.93;;;3.87;;
5121;SDS011;2563;52.242;7.956;2022-12-24T16:50:15;14.47;;;3.20;;
5121;SDS011;2563;52.242;7.956;2022-12-24T16:52:41;19.23;;;3.87;;
5121;SDS011;2563;52.242;7.956;2022-12-24T16:55:06;18.83;;;3.60;;
5121;SDS011;2563;52.242;7.956;2022-12-24T16:57:33;15.73;;;3.47;;
5121;SDS011;2563;52.242;7.956;2022-12-24T16:59:58;25.27;;;3.97;;
5121;SDS011;2563;52.242;7.956;2022-12-24T17:02:27;24.47;;;3.87;;
5121;SDS011;2563;52.242;7.956;2022-12-24T17:04:53;13.13;;;3.80;;
5121;SDS011;2563;52.242;7.956;2022-12-24T17:07:19;17.50;;;4.87;;
5121;SDS011;2563;52.242;7.956;2022-12-24T17:09:45;16.50;;;4.13;;
5121;SDS011;2563;52.242;7.956;2022-12-24T17:12:11;18.20;;;4.67;;
5121;SDS011;2563;52.242;7.956;2022-12-24T17:14:38;21.07;;;4.23;;
5121;SDS011;2563;52.242;7.956;2022-12-24T17:17:03;17.33;;;5.03;;
5121;SDS011;2563;52.242;7.956;2022-12-24T17:19:29;19.23;;;4.40;;
5121;SDS011;2563;52.242;7.956;2022-12-24T17:21:54;26.23;;;5.67;;
5121;SDS011;2563;52.242;7.956;2022-12-24T17:24:20;22.67;;;4.40;;
5121;SDS011;2563;52.242;7.956;2022-12-24T17:26:45;25.03;;;5.80;;
5121;SDS011;2563;52.242;7.956;2022-12-24T17:29:10;23.60;;;5.43;;
5121;SDS011;2563;52.242;7.956;2022-12-24T17:31:36;26.20;;;7.10;;
5121;SDS011;2563;52.242;7.956;2022-12-24T17:34:04;18.80;;;5.03;;
5121;SDS011;2563;52.242;7.956;2022-12-24T17:36:30;22.50;;;6.20;;
5121;SDS011;2563;52.242;7.956;2022-12-24T17:38:56;19.47;;;5.97;;
5121;SDS011;2563;52.242;7.956;2022-12-24T17:41:21;19.10;;;6.13;;
5121;SDS011;2563;52.242;7.956;2022-12-24T17:43:46;19.53;;;6.30;;
5121;SDS011;2563;52.242;7.956;2022-12-24T17:46:14;20.30;;;6.27;;
5121;SDS011;2563;52.242;7.956;2022-12-24T17:48:41;32.13;;;7.00;;
5121;SDS011;2563;52.242;7.956;2022-12-24T17:51:08;28.40;;;8.17;;
5121;SDS011;2563;52.242;7.956;2022-12-24T17:53:36;35.67;;;7.50;;